sensor_id;sensor_type;location;lat;lon;timestamp;P1;durP1;ratioP1;P2;durP2;ratioP2
16665;SDS011;8446;50.998;6.250;2023-08-07T00:00:42;16.87;;;3.17;;
16665;SDS011;8446;50.998;6.250;2023-08-07T00:03:10;7.90;;;3.07;;
16665;SDS011;8446;50.998;6.250;2023-08-07T00:05:44;11.70;;;3.27;;
16665;SDS011;8446;50.998;6.250;2023-08-07T00:08:12;15.67;;;3.70;;
16665;SDS011;8446;50.998;6.250;2023-08-07T00:10:39;8.00;;;3.03;;
16665;SDS011;8446;50.998;6.250;2023-08-07T00:13:06;13.20;;;3.73;;
16665;SDS011;8446;50.998;6.250;2023-08-07T00:15:33;8.90;;;3.10;;
16665;SDS011;8446;50.998;6.250;2023-08-07T00:18:03;9.93;;;2.57;;
16665;SDS011;8446;50.998;6.250;2023-08-07T00:20:30;10.23;;;3.10;;
16665;SDS011;8446;50.998;6.250;2023-08-07T00:22:57;17.10;;;3.40;;
16665;SDS011;8446;50.998;6.250;2023-08-07T00:25:25;10.73;;;2.90;;
16665;SDS011;8446;50.998;6.250;2023-08-07T00:27:52;9.17;;;3.17;;
16665;SDS011;8446;50.998;6.250;2023-08-07T00:30:19;9.27;;;2.70;;
16665;SDS011;8446;50.998;6.250;2023-08-07T00:32:46;15.40;;;3.10;;
16665;SDS011;8446;50.998;6.250;2023-08-07T00:35:12;9.60;;;3.03;;
16665;SDS011;8446;50.998;6.250;2023-08-07T00:37:39;13.93;;;3.57;;
16665;SDS011;8446;50.998;6.250;2023-08-07T00:40:06;12.33;;;4.20;;
16665;SDS011;8446;50.998;6.250;2023-08-07T00:42:35;16.00;;;2.83;;
16665;SDS011;8446;50.998;6.250;2023-08-07T00:45:02;22.17;;;2.87;;
16665;SDS011;8446;50.998;6.250;2023-08-07T00:47:30;11.93;;;2.77;;
16665;SDS011;8446;50.998;6.250;2023-08-07T00:49:57;7.13;;;2.40;;
16665;SDS011;8446;50.998;6.250;2023-08-07T00:52:24;14.70;;;3.53;;
16665;SDS011;8446;50.998;6.250;2023-08-07T00:54:51;14.03;;;3.40;;
16665;SDS011;8446;50.998;6.250;2023-08-07T00:57:18;13.53;;;3.00;;
16665;SDS011;8446;50.998;6.250;2023-08-07T00:59:49;11.10;;;2.40;;
16665;SDS011;8446;50.998;6.250;2023-08-07T01:02:16;13.90;;;3.40;;
16665;SDS011;8446;50.998;6.250;2023-08-07T01:04:43;9.13;;;2.97;;
16665;SDS011;8446;50.998;6.250;2023-08-07T01:07:10;15.77;;;2.83;;
16665;SDS011;8446;50.998;6.250;2023-08-07T01:09:36;11.50;;;2.37;;
16665;SDS011;8446;50.998;6.250;2023-08-07T01:12:06;10.13;;;3.50;;
16665;SDS011;8446;50.998;6.250;2023-08-07T01:14:40;14.13;;;3.03;;
16665;SDS011;8446;50.998;6.250;2023-08-07T01:17:15;11.83;;;2.87;;
16665;SDS011;8446;50.998;6.250;2023-08-07T01:19:42;11.20;;;2.80;;
16665;SDS011;8446;50.998;6.250;2023-08-07T01:22:12;26.47;;;3.23;;
16665;SDS011;8446;50.998;6.250;2023-08-07T01:24:41;11.17;;;3.00;;
16665;SDS011;8446;50.998;6.250;2023-08-07T01:27:11;11.73;;;3.13;;
16665;SDS011;8446;50.998;6.250;2023-08-07T01:29:44;16.70;;;2.80;;
16665;SDS011;8446;50.998;6.250;2023-08-07T01:32:18;11.17;;;3.90;;
16665;SDS011;8446;50.998;6.250;2023-08-07T01:34:47;13.73;;;3.37;;
16665;SDS011;8446;50.998;6.250;2023-08-07T01:37:17;10.60;;;3.80;;
16665;SDS011;8446;50.998;6.250;2023-08-07T01:39:45;14.73;;;3.43;;
16665;SDS011;8446;50.998;6.250;2023-08-07T01:42:13;8.33;;;3.23;;
16665;SDS011;8446;50.998;6.250;2023-08-07T01:44:40;9.70;;;3.10;;
16665;SDS011;8446;50.998;6.250;2023-08-07T01:47:08;12.30;;;3.00;;
16665;SDS011;8446;50.998;6.250;2023-08-07T01:49:34;15.30;;;3.00;;
16665;SDS011;8446;50.998;6.250;2023-08-07T01:52:03;9.97;;;3.30;;
16665;SDS011;8446;50.998;6.250;2023-08-07T01:54:32;5.60;;;2.77;;
16665;SDS011;8446;50.998;6.250;2023-08-07T01:56:59;13.57;;;2.93;;
16665;SDS011;8446;50.998;6.250;2023-08-07T01:59:26;14.00;;;3.33;;
16665;SDS011;8446;50.998;6.250;2023-08-07T02:01:53;10.60;;;3.03;;
16665;SDS011;8446;50.998;6.250;2023-08-07T02:04:19;12.20;;;3.30;;
16665;SDS011;8446;50.998;6.250;2023-08-07T02:06:46;9.67;;;3.30;;
16665;SDS011;8446;50.998;6.250;2023-08-07T02:09:13;15.20;;;3.40;;
16665;SDS011;8446;50.998;6.250;2023-08-07T02:11:41;9.77;;;3.20;;
16665;SDS011;8446;50.998;6.250;2023-08-07T02:14:09;11.23;;;3.33;;
16665;SDS011;8446;50.998;6.250;2023-08-07T02:16:36;13.30;;;3.43;;
16665;SDS011;8446;50.998;6.250;2023-08-07T02:19:02;13.77;;;3.30;;
16665;SDS011;8446;50.998;6.250;2023-08-07T02:21:29;11.33;;;2.93;;
16665;SDS011;8446;50.998;6.250;2023-08-07T02:23:58;15.93;;;3.37;;
16665;SDS011;8446;50.998;6.250;2023-08-07T02:26:24;8.33;;;3.00;;
16665;SDS011;8446;50.998;6.250;2023-08-07T02:28:52;9.53;;;3.70;;
16665;SDS011;8446;50.998;6.250;2023-08-07T02:31:19;9.20;;;3.63;;
16665;SDS011;8446;50.998;6.250;2023-08-07T02:33:46;17.90;;;3.60;;
16665;SDS011;8446;50.998;6.250;2023-08-07T02:36:13;7.30;;;2.20;;
16665;SDS011;8446;50.998;6.250;2023-08-07T02:38:39;17.63;;;3.50;;
16665;SDS011;8446;50.998;6.250;2023-08-07T02:41:06;6.43;;;2.83;;
16665;SDS011;8446;50.998;6.250;2023-08-07T02:43:33;4.57;;;2.17;;
16665;SDS011;8446;50.998;6.250;2023-08-07T02:46:01;8.47;;;2.80;;
16665;SDS011;8446;50.998;6.250;2023-08-07T02:48:28;7.57;;;2.17;;
16665;SDS011;8446;50.998;6.250;2023-08-07T02:50:55;12.40;;;2.87;;
16665;SDS011;8446;50.998;6.250;2023-08-07T02:53:21;9.67;;;2.50;;
16665;SDS011;8446;50.998;6.250;2023-08-07T02:55:48;11.53;;;2.70;;
16665;SDS011;8446;50.998;6.250;2023-08-07T02:58:15;6.00;;;2.50;;
16665;SDS011;8446;50.998;6.250;2023-08-07T03:00:42;8.33;;;3.03;;
16665;SDS011;8446;50.998;6.250;2023-08-07T03:03:10;9.90;;;3.03;;
16665;SDS011;8446;50.998;6.250;2023-08-07T03:05:37;12.70;;;2.97;;
16665;SDS011;8446;50.998;6.250;2023-08-07T03:08:04;14.47;;;3.00;;
16665;SDS011;8446;50.998;6.250;2023-08-07T03:10:30;6.17;;;2.40;;
16665;SDS011;8446;50.998;6.250;2023-08-07T03:12:57;6.97;;;2.20;;
16665;SDS011;8446;50.998;6.250;2023-08-07T03:15:24;6.33;;;2.13;;
16665;SDS011;8446;50.998;6.250;2023-08-07T03:17:51;15.93;;;1.90;;
16665;SDS011;8446;50.998;6.250;2023-08-07T03:20:19;17.00;;;2.90;;
16665;SDS011;8446;50.998;6.250;2023-08-07T03:22:45;7.63;;;2.60;;
16665;SDS011;8446;50.998;6.250;2023-08-07T03:25:12;5.33;;;2.40;;
16665;SDS011;8446;50.998;6.250;2023-08-07T03:27:39;3.27;;;2.07;;
16665;SDS011;8446;50.998;6.250;2023-08-07T03:30:06;14.93;;;2.80;;
16665;SDS011;8446;50.998;6.250;2023-08-07T03:32:33;12.70;;;3.17;;
16665;SDS011;8446;50.998;6.250;2023-08-07T03:35:00;10.53;;;3.20;;
16665;SDS011;8446;50.998;6.250;2023-08-07T03:37:28;15.73;;;2.57;;
16665;SDS011;8446;50.998;6.250;2023-08-07T03:39:55;6.87;;;2.70;;
16665;SDS011;8446;50.998;6.250;2023-08-07T03:42:22;8.57;;;2.97;;
16665;SDS011;8446;50.998;6.250;2023-08-07T03:44:49;4.73;;;2.33;;
16665;SDS011;8446;50.998;6.250;2023-08-07T03:47:15;11.73;;;3.40;;
16665;SDS011;8446;50.998;6.250;2023-08-07T03:49:42;4.00;;;2.53;;
16665;SDS011;8446;50.998;6.250;2023-08-07T03:52:09;12.93;;;2.80;;
16665;SDS011;8446;50.998;6.250;2023-08-07T03:54:37;20.13;;;2.80;;
16665;SDS011;8446;50.998;6.250;2023-08-07T03:57:04;8.33;;;2.53;;
16665;SDS011;8446;50.998;6.250;2023-08-07T03:59:31;8.80;;;2.80;;
16665;SDS011;8446;50.998;6.250;2023-08-07T04:01:58;10.30;;;2.40;;
16665;SDS011;8446;50.998;6.250;2023-08-07T04:04:24;8.07;;;2.90;;
16665;SDS011;8446;50.998;6.250;2023-08-07T04:06:51;5.23;;;2.40;;
16665;SDS011;8446;50.998;6.250;2023-08-07T04:09:18;12.93;;;3.20;;
16665;SDS011;8446;50.998;6.250;2023-08-07T04:11:46;11.87;;;3.10;;
16665;SDS011;8446;50.998;6.250;2023-08-07T04:14:13;13.13;;;2.40;;
16665;SDS011;8446;50.998;6.250;2023-08-07T04:16:40;5.20;;;2.40;;
16665;SDS011;8446;50.998;6.250;2023-08-07T04:19:06;10.80;;;2.77;;
16665;SDS011;8446;50.998;6.250;2023-08-07T04:21:33;11.37;;;2.97;;
16665;SDS011;8446;50.998;6.250;2023-08-07T04:24:00;12.50;;;3.23;;
16665;SDS011;8446;50.998;6.250;2023-08-07T04:26:33;7.00;;;2.60;;
16665;SDS011;8446;50.998;6.250;2023-08-07T04:29:01;8.33;;;2.60;;
16665;SDS011;8446;50.998;6.250;2023-08-07T04:31:28;4.20;;;2.50;;
16665;SDS011;8446;50.998;6.250;2023-08-07T04:33:56;6.87;;;2.87;;
16665;SDS011;8446;50.998;6.250;2023-08-07T04:36:23;10.10;;;3.03;;
16665;SDS011;8446;50.998;6.250;2023-08-07T04:38:50;7.40;;;2.60;;
16665;SDS011;8446;50.998;6.250;2023-08-07T04:41:16;10.53;;;3.10;;
16665;SDS011;8446;50.998;6.250;2023-08-07T04:43:44;10.50;;;2.87;;
16665;SDS011;8446;50.998;6.250;2023-08-07T04:46:14;10.73;;;3.13;;
16665;SDS011;8446;50.998;6.250;2023-08-07T04:48:41;8.00;;;2.23;;
16665;SDS011;8446;50.998;6.250;2023-08-07T04:51:07;12.17;;;3.27;;
16665;SDS011;8446;50.998;6.250;2023-08-07T04:53:34;11.13;;;2.27;;
16665;SDS011;8446;50.998;6.250;2023-08-07T04:56:02;4.27;;;2.13;;
16665;SDS011;8446;50.998;6.250;2023-08-07T04:58:29;6.40;;;2.60;;
16665;SDS011;8446;50.998;6.250;2023-08-07T05:00:55;7.13;;;2.33;;
16665;SDS011;8446;50.998;6.250;2023-08-07T05:03:24;6.27;;;2.40;;
16665;SDS011;8446;50.998;6.250;2023-08-07T05:05:57;9.00;;;2.33;;
16665;SDS011;8446;50.998;6.250;2023-08-07T05:08:24;7.50;;;3.03;;
16665;SDS011;8446;50.998;6.250;2023-08-07T05:10:51;6.77;;;2.63;;
16665;SDS011;8446;50.998;6.250;2023-08-07T05:13:18;5.80;;;2.40;;
16665;SDS011;8446;50.998;6.250;2023-08-07T05:15:46;11.27;;;2.53;;
16665;SDS011;8446;50.998;6.250;2023-08-07T05:18:13;15.30;;;3.17;;
16665;SDS011;8446;50.998;6.250;2023-08-07T05:20:41;7.30;;;2.20;;
16665;SDS011;8446;50.998;6.250;2023-08-07T05:23:08;6.43;;;3.50;;
16665;SDS011;8446;50.998;6.250;2023-08-07T05:25:35;8.13;;;2.60;;
16665;SDS011;8446;50.998;6.250;2023-08-07T05:28:03;7.00;;;2.43;;
16665;SDS011;8446;50.998;6.250;2023-08-07T05:30:30;11.80;;;2.70;;
16665;SDS011;8446;50.998;6.250;2023-08-07T05:32:57;8.10;;;2.57;;
16665;SDS011;8446;50.998;6.250;2023-08-07T05:35:24;3.30;;;2.00;;
16665;SDS011;8446;50.998;6.250;2023-08-07T05:37:52;8.10;;;2.70;;
16665;SDS011;8446;50.998;6.250;2023-08-07T05:40:19;8.70;;;2.87;;
16665;SDS011;8446;50.998;6.250;2023-08-07T05:42:46;5.03;;;2.87;;
16665;SDS011;8446;50.998;6.250;2023-08-07T05:45:13;6.87;;;2.73;;
16665;SDS011;8446;50.998;6.250;2023-08-07T05:47:39;4.17;;;1.90;;
16665;SDS011;8446;50.998;6.250;2023-08-07T05:50:07;5.67;;;2.50;;
16665;SDS011;8446;50.998;6.250;2023-08-07T05:52:34;11.20;;;2.80;;
16665;SDS011;8446;50.998;6.250;2023-08-07T05:55:02;10.73;;;2.47;;
16665;SDS011;8446;50.998;6.250;2023-08-07T05:57:29;13.67;;;2.53;;
16665;SDS011;8446;50.998;6.250;2023-08-07T05:59:56;7.13;;;2.50;;
16665;SDS011;8446;50.998;6.250;2023-08-07T06:02:23;9.37;;;2.53;;
16665;SDS011;8446;50.998;6.250;2023-08-07T06:04:51;2.80;;;1.80;;
16665;SDS011;8446;50.998;6.250;2023-08-07T06:07:19;4.80;;;2.47;;
16665;SDS011;8446;50.998;6.250;2023-08-07T06:09:46;5.93;;;2.27;;
16665;SDS011;8446;50.998;6.250;2023-08-07T06:12:14;6.63;;;2.27;;
16665;SDS011;8446;50.998;6.250;2023-08-07T06:14:41;16.07;;;2.77;;
16665;SDS011;8446;50.998;6.250;2023-08-07T06:17:08;9.33;;;2.40;;
16665;SDS011;8446;50.998;6.250;2023-08-07T06:19:35;9.50;;;2.60;;
16665;SDS011;8446;50.998;6.250;2023-08-07T06:22:01;7.90;;;2.70;;
16665;SDS011;8446;50.998;6.250;2023-08-07T06:24:28;10.07;;;2.80;;
16665;SDS011;8446;50.998;6.250;2023-08-07T06:26:55;6.43;;;2.33;;
16665;SDS011;8446;50.998;6.250;2023-08-07T06:29:23;7.73;;;2.93;;
16665;SDS011;8446;50.998;6.250;2023-08-07T06:31:50;10.80;;;3.40;;
16665;SDS011;8446;50.998;6.250;2023-08-07T06:34:17;4.47;;;2.23;;
16665;SDS011;8446;50.998;6.250;2023-08-07T06:36:43;15.40;;;3.23;;
16665;SDS011;8446;50.998;6.250;2023-08-07T06:39:10;13.33;;;2.93;;
16665;SDS011;8446;50.998;6.250;2023-08-07T06:41:37;7.73;;;2.20;;
16665;SDS011;8446;50.998;6.250;2023-08-07T06:44:04;14.30;;;2.70;;
16665;SDS011;8446;50.998;6.250;2023-08-07T06:46:32;9.70;;;2.60;;
16665;SDS011;8446;50.998;6.250;2023-08-07T06:48:59;3.40;;;2.30;;
16665;SDS011;8446;50.998;6.250;2023-08-07T06:51:26;9.03;;;2.80;;
16665;SDS011;8446;50.998;6.250;2023-08-07T06:53:53;6.80;;;3.50;;
16665;SDS011;8446;50.998;6.250;2023-08-07T06:56:19;6.63;;;2.40;;
16665;SDS011;8446;50.998;6.250;2023-08-07T06:58:46;7.80;;;2.63;;
16665;SDS011;8446;50.998;6.250;2023-08-07T07:01:13;8.83;;;2.60;;
16665;SDS011;8446;50.998;6.250;2023-08-07T07:03:41;6.43;;;2.90;;
16665;SDS011;8446;50.998;6.250;2023-08-07T07:06:10;5.93;;;2.53;;
16665;SDS011;8446;50.998;6.250;2023-08-07T07:08:37;10.10;;;3.03;;
16665;SDS011;8446;50.998;6.250;2023-08-07T07:11:04;6.53;;;2.27;;
16665;SDS011;8446;50.998;6.250;2023-08-07T07:13:30;5.60;;;2.57;;
16665;SDS011;8446;50.998;6.250;2023-08-07T07:15:57;8.00;;;2.10;;
16665;SDS011;8446;50.998;6.250;2023-08-07T07:18:24;10.13;;;2.60;;
16665;SDS011;8446;50.998;6.250;2023-08-07T07:20:57;11.13;;;2.73;;
16665;SDS011;8446;50.998;6.250;2023-08-07T07:23:25;8.97;;;2.73;;
16665;SDS011;8446;50.998;6.250;2023-08-07T07:25:53;13.83;;;3.63;;
16665;SDS011;8446;50.998;6.250;2023-08-07T07:28:20;9.57;;;2.77;;
16665;SDS011;8446;50.998;6.250;2023-08-07T07:30:47;16.40;;;2.83;;
16665;SDS011;8446;50.998;6.250;2023-08-07T07:33:13;8.03;;;2.40;;
16665;SDS011;8446;50.998;6.250;2023-08-07T07:35:40;6.33;;;2.27;;
16665;SDS011;8446;50.998;6.250;2023-08-07T07:38:08;5.80;;;2.90;;
16665;SDS011;8446;50.998;6.250;2023-08-07T07:40:36;6.40;;;2.50;;
16665;SDS011;8446;50.998;6.250;2023-08-07T07:43:04;4.80;;;2.53;;
16665;SDS011;8446;50.998;6.250;2023-08-07T07:45:31;8.60;;;2.50;;
16665;SDS011;8446;50.998;6.250;2023-08-07T07:47:58;7.67;;;2.60;;
16665;SDS011;8446;50.998;6.250;2023-08-07T07:50:28;7.60;;;2.40;;
16665;SDS011;8446;50.998;6.250;2023-08-07T07:52:55;13.77;;;3.30;;
16665;SDS011;8446;50.998;6.250;2023-08-07T07:55:24;8.20;;;2.87;;
16665;SDS011;8446;50.998;6.250;2023-08-07T07:57:51;8.07;;;2.50;;
16665;SDS011;8446;50.998;6.250;2023-08-07T08:00:18;6.13;;;2.60;;
16665;SDS011;8446;50.998;6.250;2023-08-07T08:02:45;6.80;;;3.30;;
16665;SDS011;8446;50.998;6.250;2023-08-07T08:05:12;12.13;;;2.53;;
16665;SDS011;8446;50.998;6.250;2023-08-07T08:07:42;8.77;;;3.27;;
16665;SDS011;8446;50.998;6.250;2023-08-07T08:10:09;7.70;;;2.60;;
16665;SDS011;8446;50.998;6.250;2023-08-07T08:12:37;10.10;;;2.60;;
16665;SDS011;8446;50.998;6.250;2023-08-07T08:15:04;17.17;;;3.07;;
16665;SDS011;8446;50.998;6.250;2023-08-07T08:17:31;8.03;;;2.33;;
16665;SDS011;8446;50.998;6.250;2023-08-07T08:19:58;7.07;;;2.80;;
16665;SDS011;8446;50.998;6.250;2023-08-07T08:22:25;7.97;;;2.63;;
16665;SDS011;8446;50.998;6.250;2023-08-07T08:24:52;12.63;;;2.37;;
16665;SDS011;8446;50.998;6.250;2023-08-07T08:27:18;7.70;;;2.50;;
16665;SDS011;8446;50.998;6.250;2023-08-07T08:29:48;7.50;;;2.70;;
16665;SDS011;8446;50.998;6.250;2023-08-07T08:32:14;5.47;;;2.30;;
16665;SDS011;8446;50.998;6.250;2023-08-07T08:34:41;9.13;;;2.20;;
16665;SDS011;8446;50.998;6.250;2023-08-07T08:37:08;8.17;;;3.10;;
16665;SDS011;8446;50.998;6.250;2023-08-07T08:39:36;6.87;;;2.47;;
16665;SDS011;8446;50.998;6.250;2023-08-07T08:42:03;12.90;;;2.93;;
16665;SDS011;8446;50.998;6.250;2023-08-07T08:44:30;10.10;;;3.07;;
16665;SDS011;8446;50.998;6.250;2023-08-07T08:47:03;16.37;;;2.80;;
16665;SDS011;8446;50.998;6.250;2023-08-07T08:49:33;6.50;;;2.30;;
16665;SDS011;8446;50.998;6.250;2023-08-07T08:52:03;8.73;;;2.43;;
16665;SDS011;8446;50.998;6.250;2023-08-07T08:54:31;5.50;;;2.30;;
16665;SDS011;8446;50.998;6.250;2023-08-07T08:56:58;5.93;;;2.37;;
16665;SDS011;8446;50.998;6.250;2023-08-07T08:59:26;9.00;;;2.47;;
16665;SDS011;8446;50.998;6.250;2023-08-07T09:01:53;6.00;;;1.70;;
16665;SDS011;8446;50.998;6.250;2023-08-07T09:04:22;2.87;;;2.20;;
16665;SDS011;8446;50.998;6.250;2023-08-07T09:06:48;5.67;;;2.20;;
16665;SDS011;8446;50.998;6.250;2023-08-07T09:09:16;4.73;;;2.20;;
16665;SDS011;8446;50.998;6.250;2023-08-07T09:11:46;7.30;;;2.70;;
16665;SDS011;8446;50.998;6.250;2023-08-07T09:14:15;7.30;;;2.60;;
16665;SDS011;8446;50.998;6.250;2023-08-07T09:16:43;7.00;;;2.43;;
16665;SDS011;8446;50.998;6.250;2023-08-07T09:19:12;8.43;;;2.30;;
16665;SDS011;8446;50.998;6.250;2023-08-07T09:21:40;4.50;;;2.10;;
16665;SDS011;8446;50.998;6.250;2023-08-07T09:24:07;6.93;;;2.43;;
16665;SDS011;8446;50.998;6.250;2023-08-07T09:26:34;5.33;;;2.53;;
16665;SDS011;8446;50.998;6.250;2023-08-07T09:29:02;10.13;;;2.53;;
16665;SDS011;8446;50.998;6.250;2023-08-07T09:31:29;3.07;;;1.90;;
16665;SDS011;8446;50.998;6.250;2023-08-07T09:34:00;6.07;;;2.03;;
16665;SDS011;8446;50.998;6.250;2023-08-07T09:36:29;9.00;;;1.90;;
16665;SDS011;8446;50.998;6.250;2023-08-07T09:39:01;7.90;;;1.70;;
16665;SDS011;8446;50.998;6.250;2023-08-07T09:41:28;3.13;;;1.80;;
16665;SDS011;8446;50.998;6.250;2023-08-07T09:43:56;5.83;;;2.17;;
16665;SDS011;8446;50.998;6.250;2023-08-07T09:46:23;8.53;;;2.03;;
16665;SDS011;8446;50.998;6.250;2023-08-07T09:48:51;4.57;;;1.57;;
16665;SDS011;8446;50.998;6.250;2023-08-07T09:51:23;13.00;;;1.57;;
16665;SDS011;8446;50.998;6.250;2023-08-07T09:53:50;4.80;;;1.60;;
16665;SDS011;8446;50.998;6.250;2023-08-07T09:56:18;1.93;;;1.60;;
16665;SDS011;8446;50.998;6.250;2023-08-07T09:58:48;8.13;;;2.13;;
16665;SDS011;8446;50.998;6.250;2023-08-07T10:01:15;5.20;;;2.37;;
16665;SDS011;8446;50.998;6.250;2023-08-07T10:03:42;6.77;;;2.30;;
16665;SDS011;8446;50.998;6.250;2023-08-07T10:06:11;4.57;;;2.77;;
16665;SDS011;8446;50.998;6.250;2023-08-07T10:08:38;5.20;;;2.53;;
16665;SDS011;8446;50.998;6.250;2023-08-07T10:11:08;4.00;;;1.90;;
16665;SDS011;8446;50.998;6.250;2023-08-07T10:13:36;9.23;;;2.40;;
16665;SDS011;8446;50.998;6.250;2023-08-07T10:16:03;10.33;;;1.80;;
16665;SDS011;8446;50.998;6.250;2023-08-07T10:18:30;6.73;;;2.10;;
16665;SDS011;8446;50.998;6.250;2023-08-07T10:20:57;4.10;;;2.10;;
16665;SDS011;8446;50.998;6.250;2023-08-07T10:23:25;6.20;;;2.10;;
16665;SDS011;8446;50.998;6.250;2023-08-07T10:25:52;10.10;;;2.33;;
16665;SDS011;8446;50.998;6.250;2023-08-07T10:28:20;8.27;;;2.07;;
16665;SDS011;8446;50.998;6.250;2023-08-07T10:30:51;3.73;;;2.07;;
16665;SDS011;8446;50.998;6.250;2023-08-07T10:33:19;2.80;;;1.97;;
16665;SDS011;8446;50.998;6.250;2023-08-07T10:35:47;5.50;;;1.80;;
16665;SDS011;8446;50.998;6.250;2023-08-07T10:38:14;4.80;;;1.87;;
16665;SDS011;8446;50.998;6.250;2023-08-07T10:41:00;4.50;;;1.70;;
16665;SDS011;8446;50.998;6.250;2023-08-07T10:43:27;8.80;;;2.67;;
16665;SDS011;8446;50.998;6.250;2023-08-07T10:46:01;5.40;;;2.00;;
16665;SDS011;8446;50.998;6.250;2023-08-07T10:48:29;5.00;;;1.80;;
16665;SDS011;8446;50.998;6.250;2023-08-07T10:51:03;4.97;;;1.60;;
16665;SDS011;8446;50.998;6.250;2023-08-07T10:53:31;4.47;;;1.70;;
16665;SDS011;8446;50.998;6.250;2023-08-07T10:55:59;4.43;;;2.30;;
16665;SDS011;8446;50.998;6.250;2023-08-07T10:58:29;3.50;;;1.87;;
16665;SDS011;8446;50.998;6.250;2023-08-07T11:01:16;6.83;;;2.03;;
16665;SDS011;8446;50.998;6.250;2023-08-07T11:03:44;2.60;;;1.50;;
16665;SDS011;8446;50.998;6.250;2023-08-07T11:06:11;3.33;;;1.87;;
16665;SDS011;8446;50.998;6.250;2023-08-07T11:08:38;3.90;;;1.50;;
16665;SDS011;8446;50.998;6.250;2023-08-07T11:11:07;2.07;;;1.50;;
16665;SDS011;8446;50.998;6.250;2023-08-07T11:13:34;4.40;;;1.90;;
16665;SDS011;8446;50.998;6.250;2023-08-07T11:16:01;4.20;;;1.60;;
16665;SDS011;8446;50.998;6.250;2023-08-07T11:18:30;3.27;;;1.73;;
16665;SDS011;8446;50.998;6.250;2023-08-07T11:20:57;5.07;;;1.90;;
16665;SDS011;8446;50.998;6.250;2023-08-07T11:23:26;4.23;;;1.40;;
16665;SDS011;8446;50.998;6.250;2023-08-07T11:25:53;6.33;;;2.03;;
16665;SDS011;8446;50.998;6.250;2023-08-07T11:28:20;3.90;;;2.07;;
16665;SDS011;8446;50.998;6.250;2023-08-07T11:30:48;5.23;;;2.03;;
16665;SDS011;8446;50.998;6.250;2023-08-07T11:33:17;5.60;;;2.10;;
16665;SDS011;8446;50.998;6.250;2023-08-07T11:35:45;5.73;;;2.93;;
16665;SDS011;8446;50.998;6.250;2023-08-07T11:38:12;3.83;;;1.80;;
16665;SDS011;8446;50.998;6.250;2023-08-07T11:40:39;8.10;;;2.07;;
16665;SDS011;8446;50.998;6.250;2023-08-07T11:43:06;6.13;;;1.87;;
16665;SDS011;8446;50.998;6.250;2023-08-07T11:45:32;10.10;;;1.80;;
16665;SDS011;8446;50.998;6.250;2023-08-07T11:47:59;4.10;;;1.80;;
16665;SDS011;8446;50.998;6.250;2023-08-07T11:50:27;9.93;;;1.90;;
16665;SDS011;8446;50.998;6.250;2023-08-07T11:52:56;5.73;;;1.73;;
16665;SDS011;8446;50.998;6.250;2023-08-07T11:55:25;9.37;;;2.60;;
16665;SDS011;8446;50.998;6.250;2023-08-07T11:57:55;5.37;;;2.10;;
16665;SDS011;8446;50.998;6.250;2023-08-07T12:00:24;2.63;;;1.67;;
16665;SDS011;8446;50.998;6.250;2023-08-07T12:02:52;9.03;;;2.10;;
16665;SDS011;8446;50.998;6.250;2023-08-07T12:05:19;9.37;;;2.43;;
16665;SDS011;8446;50.998;6.250;2023-08-07T12:07:46;4.20;;;2.00;;
16665;SDS011;8446;50.998;6.250;2023-08-07T12:10:15;5.30;;;2.10;;
16665;SDS011;8446;50.998;6.250;2023-08-07T12:12:42;4.33;;;1.93;;
16665;SDS011;8446;50.998;6.250;2023-08-07T12:15:09;5.57;;;2.10;;
16665;SDS011;8446;50.998;6.250;2023-08-07T12:17:36;5.07;;;1.83;;
16665;SDS011;8446;50.998;6.250;2023-08-07T12:20:03;6.10;;;2.03;;
16665;SDS011;8446;50.998;6.250;2023-08-07T12:22:35;5.30;;;2.40;;
16665;SDS011;8446;50.998;6.250;2023-08-07T12:25:02;3.90;;;1.67;;
16665;SDS011;8446;50.998;6.250;2023-08-07T12:27:30;8.77;;;4.20;;
16665;SDS011;8446;50.998;6.250;2023-08-07T12:29:58;3.10;;;1.50;;
16665;SDS011;8446;50.998;6.250;2023-08-07T12:32:24;5.73;;;2.30;;
16665;SDS011;8446;50.998;6.250;2023-08-07T12:34:51;5.87;;;2.47;;
16665;SDS011;8446;50.998;6.250;2023-08-07T12:37:18;6.50;;;2.50;;
16665;SDS011;8446;50.998;6.250;2023-08-07T12:39:45;11.80;;;2.33;;
16665;SDS011;8446;50.998;6.250;2023-08-07T12:42:12;4.50;;;1.97;;
16665;SDS011;8446;50.998;6.250;2023-08-07T12:44:40;3.90;;;1.90;;
16665;SDS011;8446;50.998;6.250;2023-08-07T12:47:08;4.90;;;2.03;;
16665;SDS011;8446;50.998;6.250;2023-08-07T12:49:35;5.57;;;2.17;;
16665;SDS011;8446;50.998;6.250;2023-08-07T12:52:02;5.73;;;2.10;;
16665;SDS011;8446;50.998;6.250;2023-08-07T12:54:29;4.93;;;1.90;;
16665;SDS011;8446;50.998;6.250;2023-08-07T12:56:57;6.37;;;2.20;;
16665;SDS011;8446;50.998;6.250;2023-08-07T12:59:24;4.40;;;2.20;;
16665;SDS011;8446;50.998;6.250;2023-08-07T13:01:52;8.50;;;2.17;;
16665;SDS011;8446;50.998;6.250;2023-08-07T13:04:19;7.20;;;1.90;;
16665;SDS011;8446;50.998;6.250;2023-08-07T13:06:46;5.70;;;2.23;;
16665;SDS011;8446;50.998;6.250;2023-08-07T13:09:14;7.10;;;2.00;;
16665;SDS011;8446;50.998;6.250;2023-08-07T13:11:41;8.00;;;2.20;;
16665;SDS011;8446;50.998;6.250;2023-08-07T13:14:08;3.87;;;2.00;;
16665;SDS011;8446;50.998;6.250;2023-08-07T13:16:34;4.77;;;2.17;;
16665;SDS011;8446;50.998;6.250;2023-08-07T13:19:02;8.30;;;2.30;;
16665;SDS011;8446;50.998;6.250;2023-08-07T13:21:29;2.27;;;1.77;;
16665;SDS011;8446;50.998;6.250;2023-08-07T13:23:56;3.33;;;1.73;;
16665;SDS011;8446;50.998;6.250;2023-08-07T13:26:23;6.07;;;2.20;;
16665;SDS011;8446;50.998;6.250;2023-08-07T13:28:49;2.33;;;1.70;;
16665;SDS011;8446;50.998;6.250;2023-08-07T13:31:16;4.43;;;1.70;;
16665;SDS011;8446;50.998;6.250;2023-08-07T13:33:43;2.20;;;1.57;;
16665;SDS011;8446;50.998;6.250;2023-08-07T13:36:11;4.47;;;1.83;;
16665;SDS011;8446;50.998;6.250;2023-08-07T13:38:38;2.23;;;1.97;;
16665;SDS011;8446;50.998;6.250;2023-08-07T13:41:05;4.03;;;2.17;;
16665;SDS011;8446;50.998;6.250;2023-08-07T13:43:31;5.53;;;2.07;;
16665;SDS011;8446;50.998;6.250;2023-08-07T13:45:58;5.73;;;1.70;;
16665;SDS011;8446;50.998;6.250;2023-08-07T13:48:25;4.57;;;2.37;;
16665;SDS011;8446;50.998;6.250;2023-08-07T13:50:53;2.73;;;1.93;;
16665;SDS011;8446;50.998;6.250;2023-08-07T13:53:21;6.80;;;1.70;;
16665;SDS011;8446;50.998;6.250;2023-08-07T13:55:54;7.20;;;2.27;;
16665;SDS011;8446;50.998;6.250;2023-08-07T13:58:20;6.27;;;2.23;;
16665;SDS011;8446;50.998;6.250;2023-08-07T14:00:47;5.13;;;2.17;;
16665;SDS011;8446;50.998;6.250;2023-08-07T14:03:14;2.93;;;1.67;;
16665;SDS011;8446;50.998;6.250;2023-08-07T14:05:41;3.40;;;1.80;;
16665;SDS011;8446;50.998;6.250;2023-08-07T14:08:07;8.70;;;2.03;;
16665;SDS011;8446;50.998;6.250;2023-08-07T14:10:36;3.40;;;2.20;;
16665;SDS011;8446;50.998;6.250;2023-08-07T14:13:05;3.20;;;2.00;;
16665;SDS011;8446;50.998;6.250;2023-08-07T14:15:32;5.10;;;2.00;;
16665;SDS011;8446;50.998;6.250;2023-08-07T14:17:59;3.43;;;2.00;;
16665;SDS011;8446;50.998;6.250;2023-08-07T14:20:26;2.67;;;1.90;;
16665;SDS011;8446;50.998;6.250;2023-08-07T14:22:53;2.53;;;1.83;;
16665;SDS011;8446;50.998;6.250;2023-08-07T14:25:20;4.47;;;2.10;;
16665;SDS011;8446;50.998;6.250;2023-08-07T14:27:48;2.60;;;1.70;;
16665;SDS011;8446;50.998;6.250;2023-08-07T14:30:15;1.63;;;1.50;;
16665;SDS011;8446;50.998;6.250;2023-08-07T14:32:42;4.10;;;2.20;;
16665;SDS011;8446;50.998;6.250;2023-08-07T14:35:09;1.83;;;1.63;;
16665;SDS011;8446;50.998;6.250;2023-08-07T14:37:36;2.83;;;1.50;;
16665;SDS011;8446;50.998;6.250;2023-08-07T14:40:03;2.83;;;1.40;;
16665;SDS011;8446;50.998;6.250;2023-08-07T14:42:30;2.67;;;1.60;;
16665;SDS011;8446;50.998;6.250;2023-08-07T14:44:58;1.40;;;1.30;;
16665;SDS011;8446;50.998;6.250;2023-08-07T14:47:25;2.80;;;1.50;;
16665;SDS011;8446;50.998;6.250;2023-08-07T14:49:52;1.70;;;1.27;;
16665;SDS011;8446;50.998;6.250;2023-08-07T14:52:19;1.73;;;1.30;;
16665;SDS011;8446;50.998;6.250;2023-08-07T14:54:46;1.60;;;1.20;;
16665;SDS011;8446;50.998;6.250;2023-08-07T14:57:12;3.93;;;1.77;;
16665;SDS011;8446;50.998;6.250;2023-08-07T14:59:39;1.57;;;1.37;;